sensor_id;sensor_type;location;lat;lon;timestamp;pressure;altitude;pressure_sealevel;temperature;humidity
8941;BME280;4505;43.406;23.226;2022-08-23T00:01:39;99198.88;;;21.37;100.00
8941;BME280;4505;43.406;23.226;2022-08-23T00:04:10;99193.31;;;21.42;100.00
8941;BME280;4505;43.406;23.226;2022-08-23T00:06:38;99187.44;;;21.49;100.00
8941;BME280;4505;43.406;23.226;2022-08-23T00:09:06;99194.63;;;21.53;100.00
8941;BME280;4505;43.406;23.226;2022-08-23T00:11:35;99187.75;;;21.47;100.00
8941;BME280;4505;43.406;23.226;2022-08-23T00:14:04;99189.03;;;21.50;100.00
8941;BME280;4505;43.406;23.226;2022-08-23T00:16:32;99186.66;;;21.48;100.00
8941;BME280;4505;43.406;23.226;2022-08-23T00:19:01;99196.97;;;21.46;100.00
8941;BME280;4505;43.406;23.226;2022-08-23T00:21:30;99189.50;;;21.43;100.00
8941;BME280;4505;43.406;23.226;2022-08-23T00:23:57;99193.78;;;21.44;100.00
8941;BME280;4505;43.406;23.226;2022-08-23T00:26:25;99193.03;;;21.44;100.00
8941;BME280;4505;43.406;23.226;2022-08-23T00:28:51;99193.47;;;21.46;100.00
8941;BME280;4505;43.406;23.226;2022-08-23T00:31:21;99188.22;;;21.41;100.00
8941;BME280;4505;43.406;23.226;2022-08-23T00:33:49;99183.94;;;21.31;100.00
8941;BME280;4505;43.406;23.226;2022-08-23T00:36:17;99179.94;;;21.20;100.00
8941;BME280;4505;43.406;23.226;2022-08-23T00:38:44;99179.13;;;21.11;100.00
8941;BME280;4505;43.406;23.226;2022-08-23T00:41:11;99179.28;;;21.06;100.00
8941;BME280;4505;43.406;23.226;2022-08-23T00:43:39;99183.25;;;21.00;100.00
8941;BME280;4505;43.406;23.226;2022-08-23T00:46:29;99199.75;;;20.98;100.00
8941;BME280;4505;43.406;23.226;2022-08-23T00:49:15;99200.84;;;20.97;100.00
8941;BME280;4505;43.406;23.226;2022-08-23T00:51:48;99196.91;;;21.03;100.00
8941;BME280;4505;43.406;23.226;2022-08-23T00:54:16;99189.72;;;20.99;100.00
8941;BME280;4505;43.406;23.226;2022-08-23T00:57:01;99196.56;;;20.96;100.00
8941;BME280;4505;43.406;23.226;2022-08-23T00:59:30;99204.94;;;20.95;100.00
8941;BME280;4505;43.406;23.226;2022-08-23T01:01:57;99200.34;;;20.95;100.00
8941;BME280;4505;43.406;23.226;2022-08-23T01:04:25;99205.56;;;20.92;100.00
8941;BME280;4505;43.406;23.226;2022-08-23T01:06:57;99210.16;;;20.91;100.00
8941;BME280;4505;43.406;23.226;2022-08-23T01:09:25;99210.34;;;20.95;100.00
8941;BME280;4505;43.406;23.226;2022-08-23T01:11:52;99214.13;;;20.94;100.00
8941;BME280;4505;43.406;23.226;2022-08-23T01:14:23;99209.53;;;20.94;100.00
8941;BME280;4505;43.406;23.226;2022-08-23T01:16:55;99212.38;;;20.89;100.00
8941;BME280;4505;43.406;23.226;2022-08-23T01:19:24;99211.28;;;20.90;100.00
8941;BME280;4505;43.406;23.226;2022-08-23T01:21:56;99210.63;;;20.85;100.00
8941;BME280;4505;43.406;23.226;2022-08-23T01:24:26;99218.09;;;20.88;100.00
8941;BME280;4505;43.406;23.226;2022-08-23T01:26:52;99219.69;;;20.89;100.00
8941;BME280;4505;43.406;23.226;2022-08-23T01:29:20;99222.09;;;20.90;100.00
8941;BME280;4505;43.406;23.226;2022-08-23T01:31:46;99216.25;;;20.97;100.00
8941;BME280;4505;43.406;23.226;2022-08-23T01:34:14;99206.91;;;21.03;100.00
8941;BME280;4505;43.406;23.226;2022-08-23T01:36:44;99204.03;;;20.99;100.00
8941;BME280;4505;43.406;23.226;2022-08-23T01:39:12;99202.75;;;20.97;100.00
8941;BME280;4505;43.406;23.226;2022-08-23T01:41:40;99211.63;;;20.97;100.00
8941;BME280;4505;43.406;23.226;2022-08-23T01:44:07;99211.44;;;20.94;100.00
8941;BME280;4505;43.406;23.226;2022-08-23T01:46:34;99211.75;;;20.92;100.00
8941;BME280;4505;43.406;23.226;2022-08-23T01:49:02;99213.84;;;20.95;100.00
8941;BME280;4505;43.406;23.226;2022-08-23T01:51:30;99212.69;;;20.88;100.00
8941;BME280;4505;43.406;23.226;2022-08-23T01:53:57;99208.84;;;21.11;100.00
8941;BME280;4505;43.406;23.226;2022-08-23T01:56:25;99205.22;;;21.24;100.00
8941;BME280;4505;43.406;23.226;2022-08-23T01:58:54;99196.31;;;21.41;100.00
8941;BME280;4505;43.406;23.226;2022-08-23T02:01:21;99196.66;;;21.31;100.00
8941;BME280;4505;43.406;23.226;2022-08-23T02:03:48;99203.50;;;21.62;100.00
8941;BME280;4505;43.406;23.226;2022-08-23T02:06:14;99207.63;;;21.43;100.00
8941;BME280;4505;43.406;23.226;2022-08-23T02:08:42;99206.50;;;21.35;100.00
8941;BME280;4505;43.406;23.226;2022-08-23T02:11:27;99212.34;;;21.20;100.00
8941;BME280;4505;43.406;23.226;2022-08-23T02:13:58;99214.75;;;21.30;100.00
8941;BME280;4505;43.406;23.226;2022-08-23T02:16:29;99217.78;;;21.28;100.00
8941;BME280;4505;43.406;23.226;2022-08-23T02:19:00;99232.28;;;21.02;100.00
8941;BME280;4505;43.406;23.226;2022-08-23T02:21:27;99241.50;;;21.01;100.00
8941;BME280;4505;43.406;23.226;2022-08-23T02:23:55;99241.94;;;20.94;100.00
8941;BME280;4505;43.406;23.226;2022-08-23T02:26:22;99238.19;;;21.04;100.00
8941;BME280;4505;43.406;23.226;2022-08-23T02:28:49;99245.84;;;20.80;100.00
8941;BME280;4505;43.406;23.226;2022-08-23T02:31:18;99241.13;;;20.94;100.00
8941;BME280;4505;43.406;23.226;2022-08-23T02:33:45;99245.94;;;20.97;100.00
8941;BME280;4505;43.406;23.226;2022-08-23T02:36:13;99256.91;;;21.00;100.00
8941;BME280;4505;43.406;23.226;2022-08-23T02:38:40;99265.31;;;20.99;100.00
8941;BME280;4505;43.406;23.226;2022-08-23T02:41:07;99271.31;;;20.96;100.00
8941;BME280;4505;43.406;23.226;2022-08-23T02:43:37;99282.94;;;20.96;100.00
8941;BME280;4505;43.406;23.226;2022-08-23T02:46:06;99284.72;;;20.79;100.00
8941;BME280;4505;43.406;23.226;2022-08-23T02:48:35;99285.81;;;20.78;100.00
8941;BME280;4505;43.406;23.226;2022-08-23T02:51:03;99282.84;;;20.79;100.00
8941;BME280;4505;43.406;23.226;2022-08-23T02:53:30;99284.41;;;20.80;100.00
8941;BME280;4505;43.406;23.226;2022-08-23T02:55:57;99292.38;;;20.85;100.00
8941;BME280;4505;43.406;23.226;2022-08-23T02:58:25;99300.03;;;20.92;100.00
8941;BME280;4505;43.406;23.226;2022-08-23T03:00:53;99291.31;;;20.95;100.00
8941;BME280;4505;43.406;23.226;2022-08-23T03:03:21;99278.66;;;20.73;100.00
8941;BME280;4505;43.406;23.226;2022-08-23T03:05:50;99253.53;;;20.64;100.00
8941;BME280;4505;43.406;23.226;2022-08-23T03:08:16;99253.66;;;20.90;100.00
8941;BME280;4505;43.406;23.226;2022-08-23T03:10:44;99242.72;;;21.25;100.00
8941;BME280;4505;43.406;23.226;2022-08-23T03:13:11;99238.88;;;21.26;100.00
8941;BME280;4505;43.406;23.226;2022-08-23T03:15:38;99243.34;;;20.92;100.00
8941;BME280;4505;43.406;23.226;2022-08-23T03:18:05;99250.72;;;20.69;100.00
8941;BME280;4505;43.406;23.226;2022-08-23T03:20:33;99254.88;;;20.75;100.00
8941;BME280;4505;43.406;23.226;2022-08-23T03:23:01;99257.69;;;20.70;100.00
8941;BME280;4505;43.406;23.226;2022-08-23T03:25:31;99267.84;;;20.65;100.00
8941;BME280;4505;43.406;23.226;2022-08-23T03:28:05;99267.53;;;20.66;100.00
8941;BME280;4505;43.406;23.226;2022-08-23T03:30:33;99267.53;;;20.66;100.00
8941;BME280;4505;43.406;23.226;2022-08-23T03:33:00;99274.63;;;20.62;100.00
8941;BME280;4505;43.406;23.226;2022-08-23T03:35:27;99274.13;;;20.60;100.00
8941;BME280;4505;43.406;23.226;2022-08-23T03:37:55;99273.66;;;20.58;100.00
8941;BME280;4505;43.406;23.226;2022-08-23T03:40:24;99284.16;;;20.60;100.00
8941;BME280;4505;43.406;23.226;2022-08-23T03:42:54;99286.88;;;20.68;100.00
8941;BME280;4505;43.406;23.226;2022-08-23T03:45:41;99301.59;;;20.62;100.00
8941;BME280;4505;43.406;23.226;2022-08-23T03:48:08;99306.97;;;20.84;100.00
8941;BME280;4505;43.406;23.226;2022-08-23T03:50:38;99308.47;;;20.68;100.00
8941;BME280;4505;43.406;23.226;2022-08-23T03:53:05;99300.78;;;20.84;100.00
8941;BME280;4505;43.406;23.226;2022-08-23T03:55:34;99297.19;;;20.66;100.00
8941;BME280;4505;43.406;23.226;2022-08-23T03:58:03;99298.06;;;20.53;100.00
8941;BME280;4505;43.406;23.226;2022-08-23T04:00:31;99299.59;;;20.46;100.00
8941;BME280;4505;43.406;23.226;2022-08-23T04:03:01;99293.66;;;20.35;100.00
8941;BME280;4505;43.406;23.226;2022-08-23T04:05:28;99294.09;;;20.29;100.00
8941;BME280;4505;43.406;23.226;2022-08-23T04:07:55;99298.50;;;20.25;100.00
8941;BME280;4505;43.406;23.226;2022-08-23T04:10:22;99292.63;;;20.09;100.00
8941;BME280;4505;43.406;23.226;2022-08-23T04:12:51;99298.50;;;20.11;100.00
8941;BME280;4505;43.406;23.226;2022-08-23T04:15:19;99300.00;;;20.17;100.00
8941;BME280;4505;43.406;23.226;2022-08-23T04:17:46;99299.47;;;20.29;100.00
8941;BME280;4505;43.406;23.226;2022-08-23T04:20:14;99305.91;;;20.41;100.00
8941;BME280;4505;43.406;23.226;2022-08-23T04:22:40;99314.69;;;20.47;100.00
8941;BME280;4505;43.406;23.226;2022-08-23T04:25:08;99313.31;;;20.58;100.00
8941;BME280;4505;43.406;23.226;2022-08-23T04:27:35;99312.53;;;20.57;100.00
8941;BME280;4505;43.406;23.226;2022-08-23T04:30:05;99315.09;;;20.62;100.00
8941;BME280;4505;43.406;23.226;2022-08-23T04:32:32;99328.25;;;20.55;100.00
8941;BME280;4505;43.406;23.226;2022-08-23T04:34:59;99331.56;;;20.83;100.00
8941;BME280;4505;43.406;23.226;2022-08-23T04:37:28;99341.06;;;21.02;100.00
8941;BME280;4505;43.406;23.226;2022-08-23T04:39:55;99342.72;;;21.12;100.00
8941;BME280;4505;43.406;23.226;2022-08-23T04:42:39;99350.22;;;21.23;100.00
8941;BME280;4505;43.406;23.226;2022-08-23T04:45:08;99352.00;;;21.28;100.00
8941;BME280;4505;43.406;23.226;2022-08-23T04:47:35;99345.84;;;21.05;100.00
8941;BME280;4505;43.406;23.226;2022-08-23T04:50:05;99337.13;;;21.08;100.00
8941;BME280;4505;43.406;23.226;2022-08-23T04:52:32;99331.88;;;21.03;100.00
8941;BME280;4505;43.406;23.226;2022-08-23T04:55:00;99331.28;;;21.15;100.00
8941;BME280;4505;43.406;23.226;2022-08-23T04:57:27;99336.25;;;21.21;100.00
8941;BME280;4505;43.406;23.226;2022-08-23T04:59:54;99329.44;;;21.33;100.00
8941;BME280;4505;43.406;23.226;2022-08-23T05:02:23;99322.47;;;21.32;100.00
8941;BME280;4505;43.406;23.226;2022-08-23T05:04:50;99327.25;;;21.35;100.00
8941;BME280;4505;43.406;23.226;2022-08-23T05:07:18;99322.38;;;21.45;100.00
8941;BME280;4505;43.406;23.226;2022-08-23T05:09:45;99314.25;;;21.45;100.00
8941;BME280;4505;43.406;23.226;2022-08-23T05:12:11;99316.63;;;21.38;100.00
8941;BME280;4505;43.406;23.226;2022-08-23T05:14:38;99322.38;;;21.45;100.00
8941;BME280;4505;43.406;23.226;2022-08-23T05:17:05;99320.13;;;21.47;100.00
8941;BME280;4505;43.406;23.226;2022-08-23T05:19:33;99316.16;;;21.45;100.00
8941;BME280;4505;43.406;23.226;2022-08-23T05:22:00;99310.16;;;21.56;100.00
8941;BME280;4505;43.406;23.226;2022-08-23T05:24:27;99309.00;;;21.49;100.00
8941;BME280;4505;43.406;23.226;2022-08-23T05:26:54;99311.28;;;21.64;100.00
8941;BME280;4505;43.406;23.226;2022-08-23T05:29:22;99312.84;;;21.65;100.00
8941;BME280;4505;43.406;23.226;2022-08-23T05:31:48;99310.94;;;21.48;100.00
8941;BME280;4505;43.406;23.226;2022-08-23T05:34:20;99307.75;;;21.46;100.00
8941;BME280;4505;43.406;23.226;2022-08-23T05:36:55;99318.63;;;21.24;100.00
8941;BME280;4505;43.406;23.226;2022-08-23T05:39:27;99319.31;;;21.38;100.00
8941;BME280;4505;43.406;23.226;2022-08-23T05:41:55;99332.13;;;21.24;100.00
8941;BME280;4505;43.406;23.226;2022-08-23T05:44:22;99331.25;;;21.46;100.00
8941;BME280;4505;43.406;23.226;2022-08-23T05:46:49;99340.19;;;21.63;100.00
8941;BME280;4505;43.406;23.226;2022-08-23T05:49:17;99338.28;;;21.64;100.00
8941;BME280;4505;43.406;23.226;2022-08-23T05:51:45;99349.06;;;21.55;100.00
8941;BME280;4505;43.406;23.226;2022-08-23T05:54:14;99337.72;;;21.36;100.00
8941;BME280;4505;43.406;23.226;2022-08-23T05:56:42;99343.41;;;21.26;100.00
8941;BME280;4505;43.406;23.226;2022-08-23T05:59:10;99342.81;;;21.38;100.00
8941;BME280;4505;43.406;23.226;2022-08-23T06:01:37;99337.72;;;21.36;100.00
8941;BME280;4505;43.406;23.226;2022-08-23T06:04:07;99338.34;;;21.81;100.00
8941;BME280;4505;43.406;23.226;2022-08-23T06:06:39;99344.88;;;21.80;100.00
8941;BME280;4505;43.406;23.226;2022-08-23T06:09:08;99339.66;;;22.00;100.00
8941;BME280;4505;43.406;23.226;2022-08-23T06:11:37;99338.59;;;22.27;100.00
8941;BME280;4505;43.406;23.226;2022-08-23T06:14:04;99345.56;;;22.45;100.00
8941;BME280;4505;43.406;23.226;2022-08-23T06:16:34;99341.09;;;22.66;100.00
8941;BME280;4505;43.406;23.226;2022-08-23T06:19:02;99352.72;;;22.32;100.00
8941;BME280;4505;43.406;23.226;2022-08-23T06:21:29;99355.72;;;22.82;100.00
8941;BME280;4505;43.406;23.226;2022-08-23T06:23:59;99366.88;;;22.89;100.00
8941;BME280;4505;43.406;23.226;2022-08-23T06:26:29;99374.06;;;22.59;100.00
8941;BME280;4505;43.406;23.226;2022-08-23T06:29:00;99382.53;;;23.38;100.00
8941;BME280;4505;43.406;23.226;2022-08-23T06:31:28;99393.25;;;23.18;100.00
8941;BME280;4505;43.406;23.226;2022-08-23T06:34:14;99394.59;;;23.49;100.00
8941;BME280;4505;43.406;23.226;2022-08-23T06:36:42;99388.13;;;23.33;100.00
8941;BME280;4505;43.406;23.226;2022-08-23T06:39:10;99375.44;;;23.54;100.00
8941;BME280;4505;43.406;23.226;2022-08-23T06:41:37;99370.94;;;23.29;100.00
8941;BME280;4505;43.406;23.226;2022-08-23T06:44:05;99369.19;;;23.16;100.00
8941;BME280;4505;43.406;23.226;2022-08-23T06:46:33;99376.78;;;23.77;100.00
8941;BME280;4505;43.406;23.226;2022-08-23T06:49:02;99378.22;;;23.75;100.00
8941;BME280;4505;43.406;23.226;2022-08-23T06:51:30;99388.00;;;23.13;100.00
8941;BME280;4505;43.406;23.226;2022-08-23T06:53:58;99385.38;;;23.42;100.00
8941;BME280;4505;43.406;23.226;2022-08-23T06:56:28;99381.59;;;23.17;100.00
8941;BME280;4505;43.406;23.226;2022-08-23T06:58:55;99386.66;;;23.44;100.00
8941;BME280;4505;43.406;23.226;2022-08-23T07:04:16;99372.19;;;24.60;100.00
8941;BME280;4505;43.406;23.226;2022-08-23T07:06:49;99380.72;;;24.91;100.00
8941;BME280;4505;43.406;23.226;2022-08-23T07:09:17;99396.50;;;24.16;100.00
8941;BME280;4505;43.406;23.226;2022-08-23T07:11:50;99397.41;;;23.99;100.00
8941;BME280;4505;43.406;23.226;2022-08-23T07:14:18;99413.41;;;24.21;100.00
8941;BME280;4505;43.406;23.226;2022-08-23T07:16:46;99423.16;;;23.84;100.00
8941;BME280;4505;43.406;23.226;2022-08-23T07:19:16;99426.13;;;23.91;100.00
8941;BME280;4505;43.406;23.226;2022-08-23T07:21:44;99428.06;;;23.53;100.00
8941;BME280;4505;43.406;23.226;2022-08-23T07:24:11;99425.66;;;23.89;100.00
8941;BME280;4505;43.406;23.226;2022-08-23T07:26:38;99438.66;;;24.13;100.00
8941;BME280;4505;43.406;23.226;2022-08-23T07:29:10;99443.59;;;23.73;100.00
8941;BME280;4505;43.406;23.226;2022-08-23T07:31:40;99451.88;;;23.39;100.00
8941;BME280;4505;43.406;23.226;2022-08-23T07:34:08;99450.47;;;23.08;100.00
8941;BME280;4505;43.406;23.226;2022-08-23T07:36:37;99448.75;;;22.52;100.00
8941;BME280;4505;43.406;23.226;2022-08-23T07:39:05;99456.22;;;22.81;100.00
8941;BME280;4505;43.406;23.226;2022-08-23T07:41:32;99457.34;;;22.71;100.00
8941;BME280;4505;43.406;23.226;2022-08-23T07:44:00;99457.84;;;22.82;100.00
8941;BME280;4505;43.406;23.226;2022-08-23T07:46:30;99475.66;;;22.74;100.00
8941;BME280;4505;43.406;23.226;2022-08-23T07:48:57;99478.31;;;22.40;100.00
8941;BME280;4505;43.406;23.226;2022-08-23T07:51:25;99469.59;;;22.77;100.00
8941;BME280;4505;43.406;23.226;2022-08-23T07:53:54;99461.28;;;23.08;100.00
8941;BME280;4505;43.406;23.226;2022-08-23T07:56:21;99460.88;;;22.80;100.00
8941;BME280;4505;43.406;23.226;2022-08-23T07:58:47;99450.19;;;22.75;100.00
8941;BME280;4505;43.406;23.226;2022-08-23T08:04:06;99464.94;;;22.43;100.00
8941;BME280;4505;43.406;23.226;2022-08-23T08:06:37;99464.34;;;22.89;100.00
8941;BME280;4505;43.406;23.226;2022-08-23T08:09:08;99461.31;;;22.99;100.00
8941;BME280;4505;43.406;23.226;2022-08-23T08:11:36;99463.69;;;23.09;100.00
8941;BME280;4505;43.406;23.226;2022-08-23T08:14:07;99463.88;;;22.96;100.00
8941;BME280;4505;43.406;23.226;2022-08-23T08:16:35;99460.69;;;22.68;100.00
8941;BME280;4505;43.406;23.226;2022-08-23T08:19:03;99467.38;;;22.79;100.00
8941;BME280;4505;43.406;23.226;2022-08-23T08:21:34;99475.16;;;22.55;100.00
8941;BME280;4505;43.406;23.226;2022-08-23T08:24:02;99476.28;;;21.98;100.00
8941;BME280;4505;43.406;23.226;2022-08-23T08:26:32;99468.53;;;22.13;100.00
8941;BME280;4505;43.406;23.226;2022-08-23T08:29:04;99472.53;;;22.24;100.00
8941;BME280;4505;43.406;23.226;2022-08-23T08:31:31;99474.25;;;22.12;100.00
8941;BME280;4505;43.406;23.226;2022-08-23T08:33:58;99468.59;;;22.47;100.00
8941;BME280;4505;43.406;23.226;2022-08-23T08:36:29;99475.53;;;22.14;100.00
8941;BME280;4505;43.406;23.226;2022-08-23T08:38:56;99476.94;;;22.77;100.00
8941;BME280;4505;43.406;23.226;2022-08-23T08:41:25;99471.84;;;22.67;100.00
8941;BME280;4505;43.406;23.226;2022-08-23T08:44:05;99472.25;;;23.45;100.00
8941;BME280;4505;43.406;23.226;2022-08-23T08:46:40;99465.69;;;23.55;100.00
8941;BME280;4505;43.406;23.226;2022-08-23T08:49:09;99462.75;;;23.77;100.00
8941;BME280;4505;43.406;23.226;2022-08-23T08:51:42;99463.97;;;24.46;100.00
8941;BME280;4505;43.406;23.226;2022-08-23T08:54:14;99464.00;;;24.17;100.00
8941;BME280;4505;43.406;23.226;2022-08-23T08:56:44;99472.56;;;24.28;100.00
8941;BME280;4505;43.406;23.226;2022-08-23T08:59:17;99467.97;;;23.82;100.00
8941;BME280;4505;43.406;23.226;2022-08-23T09:01:59;99468.88;;;23.94;100.00
8941;BME280;4505;43.406;23.226;2022-08-23T09:04:29;99468.47;;;23.04;100.00
8941;BME280;4505;43.406;23.226;2022-08-23T09:07:00;99465.09;;;23.41;100.00
8941;BME280;4505;43.406;23.226;2022-08-23T09:09:33;99471.19;;;22.70;100.00
8941;BME280;4505;43.406;23.226;2022-08-23T09:12:05;99464.63;;;23.47;100.00
8941;BME280;4505;43.406;23.226;2022-08-23T09:14:43;99455.53;;;24.19;100.00
8941;BME280;4505;43.406;23.226;2022-08-23T09:17:17;99449.13;;;24.23;100.00
8941;BME280;4505;43.406;23.226;2022-08-23T09:19:46;99453.53;;;24.07;100.00
8941;BME280;4505;43.406;23.226;2022-08-23T09:22:16;99450.59;;;24.21;100.00
8941;BME280;4505;43.406;23.226;2022-08-23T09:24:43;99460.94;;;23.43;100.00
8941;BME280;4505;43.406;23.226;2022-08-23T09:27:10;99443.28;;;24.83;100.00
8941;BME280;4505;43.406;23.226;2022-08-23T09:29:38;99435.72;;;25.66;100.00
8941;BME280;4505;43.406;23.226;2022-08-23T09:34:52;99439.06;;;26.99;100.00
8941;BME280;4505;43.406;23.226;2022-08-23T09:37:30;99435.59;;;25.17;100.00
8941;BME280;4505;43.406;23.226;2022-08-23T09:40:16;99438.38;;;24.97;100.00
8941;BME280;4505;43.406;23.226;2022-08-23T09:42:44;99436.38;;;24.44;100.00
8941;BME280;4505;43.406;23.226;2022-08-23T09:45:24;99437.16;;;25.06;100.00
8941;BME280;4505;43.406;23.226;2022-08-23T09:47:53;99433.03;;;25.33;100.00
8941;BME280;4505;43.406;23.226;2022-08-23T09:50:24;99431.50;;;26.40;100.00
8941;BME280;4505;43.406;23.226;2022-08-23T09:52:55;99436.50;;;26.38;100.00
8941;BME280;4505;43.406;23.226;2022-08-23T09:55:29;99437.88;;;25.84;100.00
8941;BME280;4505;43.406;23.226;2022-08-23T09:57:59;99439.06;;;25.06;100.00
8941;BME280;4505;43.406;23.226;2022-08-23T10:00:27;99431.53;;;25.68;100.00
8941;BME280;4505;43.406;23.226;2022-08-23T10:02:56;99437.31;;;25.55;100.00
8941;BME280;4505;43.406;23.226;2022-08-23T10:05:45;99444.78;;;24.92;100.00
8941;BME280;4505;43.406;23.226;2022-08-23T10:08:20;99444.44;;;24.94;100.00
8941;BME280;4505;43.406;23.226;2022-08-23T10:10:48;99436.94;;;26.52;100.00
8941;BME280;4505;43.406;23.226;2022-08-23T10:13:18;99436.50;;;25.66;100.00
8941;BME280;4505;43.406;23.226;2022-08-23T10:15:48;99434.09;;;25.41;100.00
8941;BME280;4505;43.406;23.226;2022-08-23T10:18:21;99429.50;;;25.77;100.00
8941;BME280;4505;43.406;23.226;2022-08-23T10:20:54;99441.47;;;26.48;100.00
8941;BME280;4505;43.406;23.226;2022-08-23T10:23:28;99435.41;;;26.03;100.00
8941;BME280;4505;43.406;23.226;2022-08-23T10:26:04;99440.84;;;25.91;100.00
8941;BME280;4505;43.406;23.226;2022-08-23T10:28:36;99440.69;;;25.76;100.00
8941;BME280;4505;43.406;23.226;2022-08-23T10:31:25;99446.66;;;26.14;100.00
8941;BME280;4505;43.406;23.226;2022-08-23T10:33:59;99445.06;;;26.01;100.00
8941;BME280;4505;43.406;23.226;2022-08-23T10:36:33;99445.88;;;26.53;100.00
8941;BME280;4505;43.406;23.226;2022-08-23T10:39:02;99442.50;;;26.32;100.00
8941;BME280;4505;43.406;23.226;2022-08-23T10:41:37;99433.81;;;25.78;100.00
8941;BME280;4505;43.406;23.226;2022-08-23T10:44:16;99439.25;;;25.78;100.00
8941;BME280;4505;43.406;23.226;2022-08-23T10:46:50;99437.91;;;26.08;100.00
8941;BME280;4505;43.406;23.226;2022-08-23T10:49:19;99432.88;;;26.86;100.00
8941;BME280;4505;43.406;23.226;2022-08-23T10:51:48;99437.84;;;27.70;100.00
8941;BME280;4505;43.406;23.226;2022-08-23T10:54:17;99445.19;;;26.68;100.00
8941;BME280;4505;43.406;23.226;2022-08-23T10:56:48;99443.81;;;27.02;100.00
8941;BME280;4505;43.406;23.226;2022-08-23T10:59:17;99437.41;;;26.30;100.00
8941;BME280;4505;43.406;23.226;2022-08-23T11:01:46;99440.25;;;26.86;100.00
8941;BME280;4505;43.406;23.226;2022-08-23T11:04:19;99437.31;;;27.34;100.00
8941;BME280;4505;43.406;23.226;2022-08-23T11:06:51;99435.88;;;27.24;100.00
8941;BME280;4505;43.406;23.226;2022-08-23T11:09:34;99432.75;;;26.43;100.00
8941;BME280;4505;43.406;23.226;2022-08-23T11:12:10;99443.75;;;27.72;100.00
8941;BME280;4505;43.406;23.226;2022-08-23T11:14:40;99445.16;;;28.82;100.00
8941;BME280;4505;43.406;23.226;2022-08-23T11:17:10;99442.59;;;29.99;100.00
8941;BME280;4505;43.406;23.226;2022-08-23T11:19:45;99444.56;;;28.39;100.00
8941;BME280;4505;43.406;23.226;2022-08-23T11:22:14;99436.03;;;28.25;100.00
8941;BME280;4505;43.406;23.226;2022-08-23T11:24:49;99444.34;;;27.35;100.00
8941;BME280;4505;43.406;23.226;2022-08-23T11:27:29;99451.50;;;27.86;100.00
8941;BME280;4505;43.406;23.226;2022-08-23T11:29:56;99448.78;;;27.12;100.00
8941;BME280;4505;43.406;23.226;2022-08-23T11:32:31;99458.94;;;27.27;100.00
8941;BME280;4505;43.406;23.226;2022-08-23T11:37:56;99459.22;;;27.10;100.00
8941;BME280;4505;43.406;23.226;2022-08-23T11:40:38;99458.81;;;26.68;100.00
8941;BME280;4505;43.406;23.226;2022-08-23T11:43:08;99459.41;;;25.89;100.00
8941;BME280;4505;43.406;23.226;2022-08-23T11:45:41;99448.66;;;25.93;100.00
8941;BME280;4505;43.406;23.226;2022-08-23T11:48:14;99451.03;;;25.70;100.00
8941;BME280;4505;43.406;23.226;2022-08-23T11:56:23;99452.94;;;24.51;100.00
8941;BME280;4505;43.406;23.226;2022-08-23T12:01:54;99449.97;;;24.65;100.00
8941;BME280;4505;43.406;23.226;2022-08-23T12:04:31;99454.75;;;24.68;100.00
8941;BME280;4505;43.406;23.226;2022-08-23T12:07:00;99451.97;;;24.97;100.00
8941;BME280;4505;43.406;23.226;2022-08-23T12:09:53;99450.06;;;25.09;100.00
8941;BME280;4505;43.406;23.226;2022-08-23T12:12:27;99463.00;;;24.71;100.00
8941;BME280;4505;43.406;23.226;2022-08-23T12:14:55;99452.25;;;24.95;100.00
8941;BME280;4505;43.406;23.226;2022-08-23T12:20:09;99464.63;;;24.23;100.00
8941;BME280;4505;43.406;23.226;2022-08-23T12:22:52;99465.19;;;24.08;100.00
8941;BME280;4505;43.406;23.226;2022-08-23T12:25:23;99474.94;;;24.09;100.00
8941;BME280;4505;43.406;23.226;2022-08-23T12:27:54;99466.28;;;23.69;100.00
8941;BME280;4505;43.406;23.226;2022-08-23T12:30:23;99472.25;;;24.00;100.00
8941;BME280;4505;43.406;23.226;2022-08-23T12:32:52;99472.06;;;24.05;100.00
8941;BME280;4505;43.406;23.226;2022-08-23T12:35:27;99492.78;;;24.10;100.00
8941;BME280;4505;43.406;23.226;2022-08-23T12:37:57;99496.22;;;23.26;100.00
8941;BME280;4505;43.406;23.226;2022-08-23T12:40:29;99504.63;;;23.08;100.00
8941;BME280;4505;43.406;23.226;2022-08-23T12:43:05;99513.16;;;22.50;100.00
8941;BME280;4505;43.406;23.226;2022-08-23T12:45:39;99514.72;;;22.25;100.00
8941;BME280;4505;43.406;23.226;2022-08-23T12:48:09;99521.00;;;22.04;100.00
8941;BME280;4505;43.406;23.226;2022-08-23T12:50:37;99527.84;;;22.10;100.00
8941;BME280;4505;43.406;23.226;2022-08-23T12:53:05;99525.09;;;21.93;100.00
8941;BME280;4505;43.406;23.226;2022-08-23T12:55:33;99541.16;;;21.67;100.00
8941;BME280;4505;43.406;23.226;2022-08-23T12:58:00;99537.34;;;21.68;100.00
8941;BME280;4505;43.406;23.226;2022-08-23T13:00:30;99536.09;;;21.74;100.00
8941;BME280;4505;43.406;23.226;2022-08-23T13:02:59;99534.56;;;22.21;100.00
8941;BME280;4505;43.406;23.226;2022-08-23T13:05:32;99543.88;;;22.45;100.00
8941;BME280;4505;43.406;23.226;2022-08-23T13:08:00;99547.94;;;22.17;100.00
8941;BME280;4505;43.406;23.226;2022-08-23T13:10:28;99541.44;;;21.88;100.00
8941;BME280;4505;43.406;23.226;2022-08-23T13:12:55;99540.59;;;21.57;100.00
8941;BME280;4505;43.406;23.226;2022-08-23T13:18:25;99534.41;;;21.56;100.00
8941;BME280;4505;43.406;23.226;2022-08-23T13:23:37;99534.28;;;21.61;100.00
8941;BME280;4505;43.406;23.226;2022-08-23T13:28:58;99515.34;;;20.95;100.00
8941;BME280;4505;43.406;23.226;2022-08-23T13:31:25;99520.06;;;20.89;100.00
8941;BME280;4505;43.406;23.226;2022-08-23T13:33:53;99522.34;;;21.09;100.00
8941;BME280;4505;43.406;23.226;2022-08-23T13:36:19;99514.47;;;21.21;100.00
8941;BME280;4505;43.406;23.226;2022-08-23T13:38:46;99526.38;;;21.20;100.00
8941;BME280;4505;43.406;23.226;2022-08-23T13:41:25;99521.53;;;21.31;100.00
8941;BME280;4505;43.406;23.226;2022-08-23T13:43:52;99528.72;;;21.36;100.00
8941;BME280;4505;43.406;23.226;2022-08-23T13:46:21;99522.63;;;21.30;100.00